sensor_id;sensor_type;location;lat;lon;timestamp;P1;durP1;ratioP1;P2;durP2;ratioP2
18082;SDS011;9168;51.194;6.840;2024-01-10T00:01:44;15.27;;;4.23;;
18082;SDS011;9168;51.194;6.840;2024-01-10T00:04:11;13.80;;;4.27;;
18082;SDS011;9168;51.194;6.840;2024-01-10T00:06:38;13.27;;;4.60;;
18082;SDS011;9168;51.194;6.840;2024-01-10T00:09:05;17.53;;;4.53;;
18082;SDS011;9168;51.194;6.840;2024-01-10T00:11:32;13.43;;;4.50;;
18082;SDS011;9168;51.194;6.840;2024-01-10T00:14:00;14.00;;;4.63;;
18082;SDS011;9168;51.194;6.840;2024-01-10T00:16:28;15.97;;;4.50;;
18082;SDS011;9168;51.194;6.840;2024-01-10T00:18:55;18.13;;;4.23;;
18082;SDS011;9168;51.194;6.840;2024-01-10T00:21:22;12.00;;;4.33;;
18082;SDS011;9168;51.194;6.840;2024-01-10T00:23:49;12.77;;;4.13;;
18082;SDS011;9168;51.194;6.840;2024-01-10T00:26:15;18.43;;;4.57;;
18082;SDS011;9168;51.194;6.840;2024-01-10T00:28:42;14.53;;;4.37;;
18082;SDS011;9168;51.194;6.840;2024-01-10T00:31:12;12.07;;;4.13;;
18082;SDS011;9168;51.194;6.840;2024-01-10T00:33:39;12.30;;;3.97;;
18082;SDS011;9168;51.194;6.840;2024-01-10T00:36:06;12.03;;;4.27;;
18082;SDS011;9168;51.194;6.840;2024-01-10T00:38:33;12.83;;;4.20;;
18082;SDS011;9168;51.194;6.840;2024-01-10T00:41:00;12.03;;;3.93;;
18082;SDS011;9168;51.194;6.840;2024-01-10T00:43:28;13.00;;;4.40;;
18082;SDS011;9168;51.194;6.840;2024-01-10T00:45:54;15.13;;;4.80;;
18082;SDS011;9168;51.194;6.840;2024-01-10T00:48:23;10.27;;;4.10;;
18082;SDS011;9168;51.194;6.840;2024-01-10T00:50:50;12.33;;;3.73;;
18082;SDS011;9168;51.194;6.840;2024-01-10T00:53:15;13.33;;;3.83;;
18082;SDS011;9168;51.194;6.840;2024-01-10T00:55:42;10.70;;;3.77;;
18082;SDS011;9168;51.194;6.840;2024-01-10T00:58:09;13.70;;;4.80;;
18082;SDS011;9168;51.194;6.840;2024-01-10T01:00:36;10.10;;;4.07;;
18082;SDS011;9168;51.194;6.840;2024-01-10T01:03:03;13.37;;;4.77;;
18082;SDS011;9168;51.194;6.840;2024-01-10T01:05:31;11.07;;;4.33;;
18082;SDS011;9168;51.194;6.840;2024-01-10T01:07:58;10.10;;;4.10;;
18082;SDS011;9168;51.194;6.840;2024-01-10T01:10:25;14.13;;;4.50;;
18082;SDS011;9168;51.194;6.840;2024-01-10T01:12:52;12.67;;;4.60;;
18082;SDS011;9168;51.194;6.840;2024-01-10T01:15:19;13.90;;;4.33;;
18082;SDS011;9168;51.194;6.840;2024-01-10T01:17:46;13.33;;;4.83;;
18082;SDS011;9168;51.194;6.840;2024-01-10T01:20:13;15.57;;;5.00;;
18082;SDS011;9168;51.194;6.840;2024-01-10T01:22:41;12.73;;;4.10;;
18082;SDS011;9168;51.194;6.840;2024-01-10T01:25:08;12.90;;;4.17;;
18082;SDS011;9168;51.194;6.840;2024-01-10T01:27:35;15.37;;;4.80;;
18082;SDS011;9168;51.194;6.840;2024-01-10T01:30:02;11.77;;;4.53;;
18082;SDS011;9168;51.194;6.840;2024-01-10T01:32:30;16.13;;;4.67;;
18082;SDS011;9168;51.194;6.840;2024-01-10T01:34:57;15.70;;;4.80;;
18082;SDS011;9168;51.194;6.840;2024-01-10T01:37:24;13.63;;;4.17;;
18082;SDS011;9168;51.194;6.840;2024-01-10T01:39:52;11.37;;;3.53;;
18082;SDS011;9168;51.194;6.840;2024-01-10T01:42:19;11.37;;;4.37;;
18082;SDS011;9168;51.194;6.840;2024-01-10T01:44:46;14.93;;;4.77;;
18082;SDS011;9168;51.194;6.840;2024-01-10T01:47:13;15.30;;;3.97;;
18082;SDS011;9168;51.194;6.840;2024-01-10T01:49:40;19.30;;;4.90;;
18082;SDS011;9168;51.194;6.840;2024-01-10T01:52:08;11.70;;;3.63;;
18082;SDS011;9168;51.194;6.840;2024-01-10T01:54:35;16.23;;;4.40;;
18082;SDS011;9168;51.194;6.840;2024-01-10T01:57:04;13.47;;;4.33;;
18082;SDS011;9168;51.194;6.840;2024-01-10T01:59:31;12.07;;;4.30;;
18082;SDS011;9168;51.194;6.840;2024-01-10T02:01:58;10.60;;;3.77;;
18082;SDS011;9168;51.194;6.840;2024-01-10T02:04:29;18.07;;;4.83;;
18082;SDS011;9168;51.194;6.840;2024-01-10T02:06:57;12.70;;;4.37;;
18082;SDS011;9168;51.194;6.840;2024-01-10T02:09:24;7.53;;;3.13;;
18082;SDS011;9168;51.194;6.840;2024-01-10T02:11:51;10.20;;;3.87;;
18082;SDS011;9168;51.194;6.840;2024-01-10T02:14:20;11.97;;;4.07;;
18082;SDS011;9168;51.194;6.840;2024-01-10T02:16:48;12.23;;;4.07;;
18082;SDS011;9168;51.194;6.840;2024-01-10T02:19:18;15.07;;;4.67;;
18082;SDS011;9168;51.194;6.840;2024-01-10T02:21:47;10.93;;;3.63;;
18082;SDS011;9168;51.194;6.840;2024-01-10T02:24:13;10.23;;;3.53;;
18082;SDS011;9168;51.194;6.840;2024-01-10T02:26:42;17.00;;;4.63;;
18082;SDS011;9168;51.194;6.840;2024-01-10T02:29:09;10.60;;;3.87;;
18082;SDS011;9168;51.194;6.840;2024-01-10T02:31:36;13.60;;;4.37;;
18082;SDS011;9168;51.194;6.840;2024-01-10T02:34:03;19.77;;;5.00;;
18082;SDS011;9168;51.194;6.840;2024-01-10T02:36:29;15.13;;;3.93;;
18082;SDS011;9168;51.194;6.840;2024-01-10T02:38:56;12.23;;;4.67;;
18082;SDS011;9168;51.194;6.840;2024-01-10T02:41:23;11.27;;;3.73;;
18082;SDS011;9168;51.194;6.840;2024-01-10T02:43:51;12.93;;;3.43;;
18082;SDS011;9168;51.194;6.840;2024-01-10T02:46:18;9.20;;;3.53;;
18082;SDS011;9168;51.194;6.840;2024-01-10T02:48:47;10.77;;;3.43;;
18082;SDS011;9168;51.194;6.840;2024-01-10T02:51:14;10.80;;;4.03;;
18082;SDS011;9168;51.194;6.840;2024-01-10T02:53:41;13.43;;;4.57;;
18082;SDS011;9168;51.194;6.840;2024-01-10T02:56:08;16.00;;;4.97;;
18082;SDS011;9168;51.194;6.840;2024-01-10T02:58:35;11.83;;;3.67;;
18082;SDS011;9168;51.194;6.840;2024-01-10T03:01:03;11.73;;;4.20;;
18082;SDS011;9168;51.194;6.840;2024-01-10T03:03:30;12.53;;;4.13;;
18082;SDS011;9168;51.194;6.840;2024-01-10T03:05:57;15.30;;;4.23;;
18082;SDS011;9168;51.194;6.840;2024-01-10T03:08:24;9.40;;;3.80;;
18082;SDS011;9168;51.194;6.840;2024-01-10T03:10:51;14.67;;;4.83;;
18082;SDS011;9168;51.194;6.840;2024-01-10T03:13:17;13.87;;;4.43;;
18082;SDS011;9168;51.194;6.840;2024-01-10T03:15:44;13.80;;;4.70;;
18082;SDS011;9168;51.194;6.840;2024-01-10T03:18:12;14.93;;;4.27;;
18082;SDS011;9168;51.194;6.840;2024-01-10T03:20:40;14.00;;;4.63;;
18082;SDS011;9168;51.194;6.840;2024-01-10T03:23:07;14.50;;;4.17;;
18082;SDS011;9168;51.194;6.840;2024-01-10T03:25:33;14.47;;;4.20;;
18082;SDS011;9168;51.194;6.840;2024-01-10T03:28:00;11.47;;;4.80;;
18082;SDS011;9168;51.194;6.840;2024-01-10T03:30:27;17.60;;;4.83;;
18082;SDS011;9168;51.194;6.840;2024-01-10T03:32:54;10.37;;;4.07;;
18082;SDS011;9168;51.194;6.840;2024-01-10T03:35:22;16.50;;;3.87;;
18082;SDS011;9168;51.194;6.840;2024-01-10T03:37:49;13.03;;;4.03;;
18082;SDS011;9168;51.194;6.840;2024-01-10T03:40:16;15.53;;;4.53;;
18082;SDS011;9168;51.194;6.840;2024-01-10T03:42:43;16.30;;;4.33;;
18082;SDS011;9168;51.194;6.840;2024-01-10T03:45:10;11.83;;;4.17;;
18082;SDS011;9168;51.194;6.840;2024-01-10T03:47:37;12.80;;;4.70;;
18082;SDS011;9168;51.194;6.840;2024-01-10T03:50:04;15.90;;;4.37;;
18082;SDS011;9168;51.194;6.840;2024-01-10T03:52:33;15.53;;;4.27;;
18082;SDS011;9168;51.194;6.840;2024-01-10T03:55:00;12.90;;;5.03;;
18082;SDS011;9168;51.194;6.840;2024-01-10T03:57:27;14.00;;;4.77;;
18082;SDS011;9168;51.194;6.840;2024-01-10T03:59:54;13.53;;;4.33;;
18082;SDS011;9168;51.194;6.840;2024-01-10T04:02:20;13.20;;;4.00;;
18082;SDS011;9168;51.194;6.840;2024-01-10T04:04:47;11.00;;;3.90;;
18082;SDS011;9168;51.194;6.840;2024-01-10T04:07:15;12.00;;;4.37;;
18082;SDS011;9168;51.194;6.840;2024-01-10T04:09:43;14.40;;;3.90;;
18082;SDS011;9168;51.194;6.840;2024-01-10T04:12:10;13.90;;;4.93;;
18082;SDS011;9168;51.194;6.840;2024-01-10T04:14:37;20.40;;;5.33;;
18082;SDS011;9168;51.194;6.840;2024-01-10T04:17:04;16.57;;;4.63;;
18082;SDS011;9168;51.194;6.840;2024-01-10T04:19:32;12.23;;;4.13;;
18082;SDS011;9168;51.194;6.840;2024-01-10T04:21:58;13.07;;;4.80;;
18082;SDS011;9168;51.194;6.840;2024-01-10T04:24:25;14.43;;;5.00;;
18082;SDS011;9168;51.194;6.840;2024-01-10T04:26:54;18.27;;;4.60;;
18082;SDS011;9168;51.194;6.840;2024-01-10T04:29:20;17.93;;;4.77;;
18082;SDS011;9168;51.194;6.840;2024-01-10T04:31:47;16.83;;;4.50;;
18082;SDS011;9168;51.194;6.840;2024-01-10T04:34:14;13.77;;;5.20;;
18082;SDS011;9168;51.194;6.840;2024-01-10T04:36:41;12.97;;;4.77;;
18082;SDS011;9168;51.194;6.840;2024-01-10T04:39:08;12.07;;;4.63;;
18082;SDS011;9168;51.194;6.840;2024-01-10T04:41:35;13.83;;;4.27;;
18082;SDS011;9168;51.194;6.840;2024-01-10T04:44:03;19.17;;;4.90;;
18082;SDS011;9168;51.194;6.840;2024-01-10T04:46:30;14.87;;;4.60;;
18082;SDS011;9168;51.194;6.840;2024-01-10T04:48:58;11.30;;;4.20;;
18082;SDS011;9168;51.194;6.840;2024-01-10T04:51:25;16.17;;;4.63;;
18082;SDS011;9168;51.194;6.840;2024-01-10T04:53:52;15.47;;;5.17;;
18082;SDS011;9168;51.194;6.840;2024-01-10T04:56:20;14.13;;;4.37;;
18082;SDS011;9168;51.194;6.840;2024-01-10T04:58:47;16.47;;;4.83;;
18082;SDS011;9168;51.194;6.840;2024-01-10T05:01:15;13.23;;;4.87;;
18082;SDS011;9168;51.194;6.840;2024-01-10T05:03:42;12.83;;;5.27;;
18082;SDS011;9168;51.194;6.840;2024-01-10T05:06:09;13.90;;;4.50;;
18082;SDS011;9168;51.194;6.840;2024-01-10T05:08:36;11.87;;;4.53;;
18082;SDS011;9168;51.194;6.840;2024-01-10T05:11:03;21.77;;;4.67;;
18082;SDS011;9168;51.194;6.840;2024-01-10T05:13:30;17.47;;;5.10;;
18082;SDS011;9168;51.194;6.840;2024-01-10T05:15:57;19.10;;;5.30;;
18082;SDS011;9168;51.194;6.840;2024-01-10T05:18:25;17.00;;;5.07;;
18082;SDS011;9168;51.194;6.840;2024-01-10T05:20:52;12.90;;;4.37;;
18082;SDS011;9168;51.194;6.840;2024-01-10T05:23:19;14.83;;;5.13;;
18082;SDS011;9168;51.194;6.840;2024-01-10T05:25:46;12.23;;;4.70;;
18082;SDS011;9168;51.194;6.840;2024-01-10T05:28:13;14.37;;;4.33;;
18082;SDS011;9168;51.194;6.840;2024-01-10T05:30:40;12.37;;;4.03;;
18082;SDS011;9168;51.194;6.840;2024-01-10T05:33:07;13.10;;;3.83;;
18082;SDS011;9168;51.194;6.840;2024-01-10T05:35:37;12.23;;;3.93;;
18082;SDS011;9168;51.194;6.840;2024-01-10T05:38:04;16.83;;;4.67;;
18082;SDS011;9168;51.194;6.840;2024-01-10T05:40:32;16.53;;;4.17;;
18082;SDS011;9168;51.194;6.840;2024-01-10T05:42:59;19.20;;;5.20;;
18082;SDS011;9168;51.194;6.840;2024-01-10T05:45:25;14.37;;;5.07;;
18082;SDS011;9168;51.194;6.840;2024-01-10T05:47:53;13.63;;;3.93;;
18082;SDS011;9168;51.194;6.840;2024-01-10T05:50:20;11.83;;;4.43;;
18082;SDS011;9168;51.194;6.840;2024-01-10T05:52:48;16.67;;;5.43;;
18082;SDS011;9168;51.194;6.840;2024-01-10T05:55:15;17.23;;;4.80;;
18082;SDS011;9168;51.194;6.840;2024-01-10T05:57:42;13.77;;;4.70;;
18082;SDS011;9168;51.194;6.840;2024-01-10T06:00:09;15.30;;;4.10;;
18082;SDS011;9168;51.194;6.840;2024-01-10T06:02:38;17.20;;;4.53;;
18082;SDS011;9168;51.194;6.840;2024-01-10T06:05:05;12.80;;;4.17;;
18082;SDS011;9168;51.194;6.840;2024-01-10T06:07:34;14.13;;;4.67;;
18082;SDS011;9168;51.194;6.840;2024-01-10T06:10:02;13.20;;;4.30;;
18082;SDS011;9168;51.194;6.840;2024-01-10T06:12:29;20.00;;;5.33;;
18082;SDS011;9168;51.194;6.840;2024-01-10T06:14:56;13.17;;;4.00;;
18082;SDS011;9168;51.194;6.840;2024-01-10T06:17:23;15.47;;;5.00;;
18082;SDS011;9168;51.194;6.840;2024-01-10T06:19:50;12.80;;;4.77;;
18082;SDS011;9168;51.194;6.840;2024-01-10T06:22:17;13.93;;;4.00;;
18082;SDS011;9168;51.194;6.840;2024-01-10T06:24:50;18.60;;;5.37;;
18082;SDS011;9168;51.194;6.840;2024-01-10T06:27:18;11.07;;;4.10;;
18082;SDS011;9168;51.194;6.840;2024-01-10T06:29:45;14.37;;;5.17;;
18082;SDS011;9168;51.194;6.840;2024-01-10T06:32:12;17.23;;;4.73;;
18082;SDS011;9168;51.194;6.840;2024-01-10T06:34:39;11.87;;;4.13;;
18082;SDS011;9168;51.194;6.840;2024-01-10T06:37:06;11.93;;;4.23;;
18082;SDS011;9168;51.194;6.840;2024-01-10T06:39:33;15.20;;;5.37;;
18082;SDS011;9168;51.194;6.840;2024-01-10T06:42:00;12.53;;;4.47;;
18082;SDS011;9168;51.194;6.840;2024-01-10T06:44:30;17.23;;;4.53;;
18082;SDS011;9168;51.194;6.840;2024-01-10T06:46:57;18.53;;;5.20;;
18082;SDS011;9168;51.194;6.840;2024-01-10T06:49:23;15.90;;;5.13;;
18082;SDS011;9168;51.194;6.840;2024-01-10T06:51:52;14.90;;;4.53;;
18082;SDS011;9168;51.194;6.840;2024-01-10T06:54:19;18.23;;;4.97;;
18082;SDS011;9168;51.194;6.840;2024-01-10T06:56:46;13.07;;;4.33;;
18082;SDS011;9168;51.194;6.840;2024-01-10T06:59:12;13.90;;;4.47;;
18082;SDS011;9168;51.194;6.840;2024-01-10T07:01:41;13.53;;;5.13;;
18082;SDS011;9168;51.194;6.840;2024-01-10T07:04:08;18.27;;;5.20;;
18082;SDS011;9168;51.194;6.840;2024-01-10T07:06:34;16.07;;;4.57;;
18082;SDS011;9168;51.194;6.840;2024-01-10T07:09:01;18.90;;;5.50;;
18082;SDS011;9168;51.194;6.840;2024-01-10T07:11:30;16.50;;;4.77;;
18082;SDS011;9168;51.194;6.840;2024-01-10T07:13:57;16.00;;;5.13;;
18082;SDS011;9168;51.194;6.840;2024-01-10T07:16:24;18.47;;;5.50;;
18082;SDS011;9168;51.194;6.840;2024-01-10T07:18:53;16.60;;;5.67;;
18082;SDS011;9168;51.194;6.840;2024-01-10T07:21:20;15.60;;;5.43;;
18082;SDS011;9168;51.194;6.840;2024-01-10T07:23:47;20.20;;;5.77;;
18082;SDS011;9168;51.194;6.840;2024-01-10T07:26:15;17.27;;;5.33;;
18082;SDS011;9168;51.194;6.840;2024-01-10T07:28:42;17.87;;;6.10;;
18082;SDS011;9168;51.194;6.840;2024-01-10T07:31:11;18.33;;;5.53;;
18082;SDS011;9168;51.194;6.840;2024-01-10T07:33:38;18.57;;;5.33;;
18082;SDS011;9168;51.194;6.840;2024-01-10T07:36:06;20.30;;;6.03;;
18082;SDS011;9168;51.194;6.840;2024-01-10T07:38:33;21.73;;;6.03;;
18082;SDS011;9168;51.194;6.840;2024-01-10T07:41:00;18.83;;;5.40;;
18082;SDS011;9168;51.194;6.840;2024-01-10T07:43:27;18.53;;;5.63;;
18082;SDS011;9168;51.194;6.840;2024-01-10T07:45:54;18.93;;;5.80;;
18082;SDS011;9168;51.194;6.840;2024-01-10T07:48:21;16.17;;;5.50;;
18082;SDS011;9168;51.194;6.840;2024-01-10T07:50:48;26.67;;;5.73;;
18082;SDS011;9168;51.194;6.840;2024-01-10T07:53:16;13.07;;;5.67;;
18082;SDS011;9168;51.194;6.840;2024-01-10T07:55:43;22.60;;;5.67;;
18082;SDS011;9168;51.194;6.840;2024-01-10T07:58:10;20.60;;;6.27;;
18082;SDS011;9168;51.194;6.840;2024-01-10T08:00:37;22.03;;;5.47;;
18082;SDS011;9168;51.194;6.840;2024-01-10T08:03:04;20.37;;;4.87;;
18082;SDS011;9168;51.194;6.840;2024-01-10T08:05:31;15.93;;;5.77;;
18082;SDS011;9168;51.194;6.840;2024-01-10T08:07:58;17.73;;;5.83;;
18082;SDS011;9168;51.194;6.840;2024-01-10T08:10:27;18.57;;;6.20;;
18082;SDS011;9168;51.194;6.840;2024-01-10T08:12:53;28.47;;;5.97;;
18082;SDS011;9168;51.194;6.840;2024-01-10T08:15:21;19.40;;;5.50;;
18082;SDS011;9168;51.194;6.840;2024-01-10T08:17:48;15.83;;;5.23;;
18082;SDS011;9168;51.194;6.840;2024-01-10T08:20:15;23.27;;;5.50;;
18082;SDS011;9168;51.194;6.840;2024-01-10T08:22:45;16.50;;;5.90;;
18082;SDS011;9168;51.194;6.840;2024-01-10T08:25:13;19.93;;;5.67;;
18082;SDS011;9168;51.194;6.840;2024-01-10T08:27:45;19.87;;;5.80;;
18082;SDS011;9168;51.194;6.840;2024-01-10T08:30:12;17.77;;;6.97;;
18082;SDS011;9168;51.194;6.840;2024-01-10T08:32:39;15.97;;;5.83;;
18082;SDS011;9168;51.194;6.840;2024-01-10T08:35:06;27.17;;;6.00;;
18082;SDS011;9168;51.194;6.840;2024-01-10T08:37:34;22.63;;;6.63;;
18082;SDS011;9168;51.194;6.840;2024-01-10T08:40:02;18.17;;;4.67;;
18082;SDS011;9168;51.194;6.840;2024-01-10T08:42:35;18.80;;;5.23;;
18082;SDS011;9168;51.194;6.840;2024-01-10T08:45:04;14.23;;;4.90;;
18082;SDS011;9168;51.194;6.840;2024-01-10T08:47:31;20.00;;;5.67;;
18082;SDS011;9168;51.194;6.840;2024-01-10T08:50:00;15.67;;;5.17;;
18082;SDS011;9168;51.194;6.840;2024-01-10T08:52:27;19.13;;;5.07;;
18082;SDS011;9168;51.194;6.840;2024-01-10T08:54:54;13.70;;;4.97;;
18082;SDS011;9168;51.194;6.840;2024-01-10T08:57:21;24.17;;;6.00;;
18082;SDS011;9168;51.194;6.840;2024-01-10T08:59:48;17.23;;;5.10;;
18082;SDS011;9168;51.194;6.840;2024-01-10T09:02:16;18.40;;;5.43;;
18082;SDS011;9168;51.194;6.840;2024-01-10T09:04:43;18.57;;;6.33;;
18082;SDS011;9168;51.194;6.840;2024-01-10T09:07:10;19.50;;;5.33;;
18082;SDS011;9168;51.194;6.840;2024-01-10T09:09:37;17.13;;;6.07;;
18082;SDS011;9168;51.194;6.840;2024-01-10T09:12:04;13.47;;;5.07;;
18082;SDS011;9168;51.194;6.840;2024-01-10T09:14:31;22.40;;;6.00;;
18082;SDS011;9168;51.194;6.840;2024-01-10T09:16:58;18.73;;;6.33;;
18082;SDS011;9168;51.194;6.840;2024-01-10T09:19:29;16.17;;;5.33;;
18082;SDS011;9168;51.194;6.840;2024-01-10T09:21:56;20.33;;;5.63;;
18082;SDS011;9168;51.194;6.840;2024-01-10T09:24:23;22.63;;;5.63;;
18082;SDS011;9168;51.194;6.840;2024-01-10T09:26:51;15.30;;;5.23;;
18082;SDS011;9168;51.194;6.840;2024-01-10T09:29:18;17.60;;;5.30;;
18082;SDS011;9168;51.194;6.840;2024-01-10T09:31:45;20.70;;;5.77;;
18082;SDS011;9168;51.194;6.840;2024-01-10T09:34:12;18.43;;;5.60;;
18082;SDS011;9168;51.194;6.840;2024-01-10T09:36:40;17.83;;;5.93;;
18082;SDS011;9168;51.194;6.840;2024-01-10T09:39:07;19.13;;;5.90;;
18082;SDS011;9168;51.194;6.840;2024-01-10T09:41:40;17.80;;;5.63;;
18082;SDS011;9168;51.194;6.840;2024-01-10T09:44:11;21.00;;;5.57;;
18082;SDS011;9168;51.194;6.840;2024-01-10T09:46:38;19.77;;;5.63;;
18082;SDS011;9168;51.194;6.840;2024-01-10T09:49:09;19.93;;;5.47;;
18082;SDS011;9168;51.194;6.840;2024-01-10T09:51:37;19.27;;;5.83;;
18082;SDS011;9168;51.194;6.840;2024-01-10T09:54:05;18.57;;;6.10;;
18082;SDS011;9168;51.194;6.840;2024-01-10T09:56:32;19.17;;;5.50;;
18082;SDS011;9168;51.194;6.840;2024-01-10T09:59:02;23.70;;;6.40;;
18082;SDS011;9168;51.194;6.840;2024-01-10T10:01:31;16.50;;;5.60;;
18082;SDS011;9168;51.194;6.840;2024-01-10T10:03:58;14.17;;;5.10;;
18082;SDS011;9168;51.194;6.840;2024-01-10T10:06:27;21.03;;;6.63;;
18082;SDS011;9168;51.194;6.840;2024-01-10T10:08:53;21.67;;;5.37;;
18082;SDS011;9168;51.194;6.840;2024-01-10T10:11:22;18.33;;;5.30;;
18082;SDS011;9168;51.194;6.840;2024-01-10T10:13:49;16.93;;;5.60;;
18082;SDS011;9168;51.194;6.840;2024-01-10T10:16:18;13.40;;;4.80;;
18082;SDS011;9168;51.194;6.840;2024-01-10T10:18:50;17.23;;;5.70;;
18082;SDS011;9168;51.194;6.840;2024-01-10T10:21:19;13.97;;;4.87;;
18082;SDS011;9168;51.194;6.840;2024-01-10T10:23:57;16.33;;;4.93;;
18082;SDS011;9168;51.194;6.840;2024-01-10T10:26:26;18.00;;;5.90;;
18082;SDS011;9168;51.194;6.840;2024-01-10T10:28:54;14.60;;;4.97;;
18082;SDS011;9168;51.194;6.840;2024-01-10T10:31:22;18.93;;;5.57;;
18082;SDS011;9168;51.194;6.840;2024-01-10T10:33:50;16.40;;;5.10;;
18082;SDS011;9168;51.194;6.840;2024-01-10T10:36:18;13.00;;;4.50;;
18082;SDS011;9168;51.194;6.840;2024-01-10T10:38:46;14.17;;;4.53;;
18082;SDS011;9168;51.194;6.840;2024-01-10T10:41:14;15.57;;;5.13;;
18082;SDS011;9168;51.194;6.840;2024-01-10T10:43:42;12.20;;;4.43;;
18082;SDS011;9168;51.194;6.840;2024-01-10T10:46:09;14.30;;;4.40;;
18082;SDS011;9168;51.194;6.840;2024-01-10T10:48:37;13.50;;;4.17;;
18082;SDS011;9168;51.194;6.840;2024-01-10T10:51:05;12.93;;;4.00;;
18082;SDS011;9168;51.194;6.840;2024-01-10T10:53:33;13.83;;;4.90;;
18082;SDS011;9168;51.194;6.840;2024-01-10T10:56:02;12.17;;;4.57;;
18082;SDS011;9168;51.194;6.840;2024-01-10T10:58:31;17.13;;;4.57;;
18082;SDS011;9168;51.194;6.840;2024-01-10T11:01:01;16.80;;;5.30;;
18082;SDS011;9168;51.194;6.840;2024-01-10T11:03:31;13.00;;;4.80;;
18082;SDS011;9168;51.194;6.840;2024-01-10T11:06:01;16.03;;;5.57;;
18082;SDS011;9168;51.194;6.840;2024-01-10T11:08:29;18.97;;;5.30;;
18082;SDS011;9168;51.194;6.840;2024-01-10T11:11:00;11.77;;;4.60;;
18082;SDS011;9168;51.194;6.840;2024-01-10T11:13:32;12.87;;;4.97;;
18082;SDS011;9168;51.194;6.840;2024-01-10T11:16:39;16.47;;;5.30;;
18082;SDS011;9168;51.194;6.840;2024-01-10T11:19:37;19.10;;;5.83;;
18082;SDS011;9168;51.194;6.840;2024-01-10T11:22:20;18.30;;;5.37;;
18082;SDS011;9168;51.194;6.840;2024-01-10T11:25:02;14.10;;;4.77;;
18082;SDS011;9168;51.194;6.840;2024-01-10T11:27:30;17.17;;;4.97;;
18082;SDS011;9168;51.194;6.840;2024-01-10T11:29:57;19.40;;;4.57;;
18082;SDS011;9168;51.194;6.840;2024-01-10T11:32:25;14.23;;;4.87;;
18082;SDS011;9168;51.194;6.840;2024-01-10T11:34:56;15.97;;;4.90;;
18082;SDS011;9168;51.194;6.840;2024-01-10T11:37:27;14.57;;;4.80;;
18082;SDS011;9168;51.194;6.840;2024-01-10T11:39:55;13.93;;;5.30;;
18082;SDS011;9168;51.194;6.840;2024-01-10T11:42:22;15.97;;;5.13;;
18082;SDS011;9168;51.194;6.840;2024-01-10T11:44:49;18.57;;;5.90;;
18082;SDS011;9168;51.194;6.840;2024-01-10T11:47:18;19.00;;;5.10;;
18082;SDS011;9168;51.194;6.840;2024-01-10T11:49:56;14.97;;;4.80;;
18082;SDS011;9168;51.194;6.840;2024-01-10T11:52:31;15.03;;;4.40;;
18082;SDS011;9168;51.194;6.840;2024-01-10T11:54:59;13.73;;;4.97;;
18082;SDS011;9168;51.194;6.840;2024-01-10T11:57:27;17.33;;;5.27;;
18082;SDS011;9168;51.194;6.840;2024-01-10T11:59:57;18.27;;;5.43;;
18082;SDS011;9168;51.194;6.840;2024-01-10T12:02:25;13.10;;;4.83;;
18082;SDS011;9168;51.194;6.840;2024-01-10T12:04:53;15.63;;;4.33;;
18082;SDS011;9168;51.194;6.840;2024-01-10T12:07:21;14.03;;;4.90;;
18082;SDS011;9168;51.194;6.840;2024-01-10T12:09:50;12.47;;;4.87;;
18082;SDS011;9168;51.194;6.840;2024-01-10T12:12:16;14.40;;;4.90;;
18082;SDS011;9168;51.194;6.840;2024-01-10T12:14:43;14.00;;;4.70;;
18082;SDS011;9168;51.194;6.840;2024-01-10T12:17:11;15.10;;;5.38;;
18082;SDS011;9168;51.194;6.840;2024-01-10T12:19:38;13.30;;;4.63;;
18082;SDS011;9168;51.194;6.840;2024-01-10T12:22:05;13.10;;;5.57;;
18082;SDS011;9168;51.194;6.840;2024-01-10T12:24:33;17.90;;;5.27;;
18082;SDS011;9168;51.194;6.840;2024-01-10T12:27:04;15.43;;;5.38;;
18082;SDS011;9168;51.194;6.840;2024-01-10T12:29:31;13.93;;;4.53;;
18082;SDS011;9168;51.194;6.840;2024-01-10T12:31:58;16.33;;;5.23;;
18082;SDS011;9168;51.194;6.840;2024-01-10T12:34:26;14.63;;;4.73;;
18082;SDS011;9168;51.194;6.840;2024-01-10T12:36:54;12.17;;;4.57;;
18082;SDS011;9168;51.194;6.840;2024-01-10T12:39:21;14.10;;;5.43;;
18082;SDS011;9168;51.194;6.840;2024-01-10T12:41:51;14.90;;;5.57;;
18082;SDS011;9168;51.194;6.840;2024-01-10T12:44:18;15.00;;;5.23;;
18082;SDS011;9168;51.194;6.840;2024-01-10T12:46:51;14.40;;;4.70;;
18082;SDS011;9168;51.194;6.840;2024-01-10T12:49:18;21.20;;;5.37;;
18082;SDS011;9168;51.194;6.840;2024-01-10T12:51:46;13.93;;;5.30;;
18082;SDS011;9168;51.194;6.840;2024-01-10T12:54:14;19.97;;;4.87;;
18082;SDS011;9168;51.194;6.840;2024-01-10T12:56:42;19.13;;;5.83;;
18082;SDS011;9168;51.194;6.840;2024-01-10T12:59:10;23.23;;;5.90;;
18082;SDS011;9168;51.194;6.840;2024-01-10T13:01:37;18.07;;;5.90;;
18082;SDS011;9168;51.194;6.840;2024-01-10T13:04:04;21.33;;;6.87;;
18082;SDS011;9168;51.194;6.840;2024-01-10T13:06:32;17.87;;;6.23;;
18082;SDS011;9168;51.194;6.840;2024-01-10T13:08:58;14.80;;;5.80;;
18082;SDS011;9168;51.194;6.840;2024-01-10T13:11:26;17.97;;;5.67;;
18082;SDS011;9168;51.194;6.840;2024-01-10T13:13:53;14.63;;;5.80;;
18082;SDS011;9168;51.194;6.840;2024-01-10T13:16:21;15.20;;;5.17;;
18082;SDS011;9168;51.194;6.840;2024-01-10T13:18:49;13.67;;;5.00;;
18082;SDS011;9168;51.194;6.840;2024-01-10T13:21:18;11.30;;;4.53;;
18082;SDS011;9168;51.194;6.840;2024-01-10T13:23:45;16.27;;;6.57;;
18082;SDS011;9168;51.194;6.840;2024-01-10T13:26:12;18.80;;;6.40;;
18082;SDS011;9168;51.194;6.840;2024-01-10T13:28:40;16.20;;;6.20;;
18082;SDS011;9168;51.194;6.840;2024-01-10T13:31:06;17.63;;;5.73;;
18082;SDS011;9168;51.194;6.840;2024-01-10T13:33:35;18.63;;;5.27;;
18082;SDS011;9168;51.194;6.840;2024-01-10T13:36:03;14.50;;;5.67;;
18082;SDS011;9168;51.194;6.840;2024-01-10T13:38:30;14.87;;;5.07;;
18082;SDS011;9168;51.194;6.840;2024-01-10T13:40:57;17.37;;;6.20;;
18082;SDS011;9168;51.194;6.840;2024-01-10T13:43:24;18.13;;;5.73;;
18082;SDS011;9168;51.194;6.840;2024-01-10T13:45:51;19.53;;;6.30;;
18082;SDS011;9168;51.194;6.840;2024-01-10T13:48:19;16.97;;;6.10;;
18082;SDS011;9168;51.194;6.840;2024-01-10T13:50:47;20.60;;;6.87;;
18082;SDS011;9168;51.194;6.840;2024-01-10T13:53:14;17.40;;;6.10;;
18082;SDS011;9168;51.194;6.840;2024-01-10T13:55:42;16.63;;;5.37;;
18082;SDS011;9168;51.194;6.840;2024-01-10T13:58:11;18.93;;;7.63;;
18082;SDS011;9168;51.194;6.840;2024-01-10T14:00:38;16.27;;;6.03;;
18082;SDS011;9168;51.194;6.840;2024-01-10T14:03:05;18.27;;;7.47;;
18082;SDS011;9168;51.194;6.840;2024-01-10T14:05:31;22.83;;;6.90;;
18082;SDS011;9168;51.194;6.840;2024-01-10T14:08:00;18.07;;;6.07;;
18082;SDS011;9168;51.194;6.840;2024-01-10T14:10:27;28.13;;;7.43;;
18082;SDS011;9168;51.194;6.840;2024-01-10T14:12:53;24.57;;;9.03;;
18082;SDS011;9168;51.194;6.840;2024-01-10T14:15:20;31.03;;;8.87;;
18082;SDS011;9168;51.194;6.840;2024-01-10T14:17:47;19.17;;;7.17;;
18082;SDS011;9168;51.194;6.840;2024-01-10T14:20:14;20.27;;;6.77;;
18082;SDS011;9168;51.194;6.840;2024-01-10T14:22:41;23.90;;;7.30;;
18082;SDS011;9168;51.194;6.840;2024-01-10T14:25:09;22.83;;;7.70;;
18082;SDS011;9168;51.194;6.840;2024-01-10T14:27:36;19.70;;;7.13;;
18082;SDS011;9168;51.194;6.840;2024-01-10T14:30:05;23.87;;;7.60;;
18082;SDS011;9168;51.194;6.840;2024-01-10T14:32:34;22.40;;;7.30;;
18082;SDS011;9168;51.194;6.840;2024-01-10T14:35:02;25.73;;;8.30;;
18082;SDS011;9168;51.194;6.840;2024-01-10T14:37:30;30.40;;;9.87;;
18082;SDS011;9168;51.194;6.840;2024-01-10T14:39:57;28.13;;;9.00;;
18082;SDS011;9168;51.194;6.840;2024-01-10T14:42:25;24.20;;;8.60;;
18082;SDS011;9168;51.194;6.840;2024-01-10T14:44:52;20.00;;;8.07;;
18082;SDS011;9168;51.194;6.840;2024-01-10T14:47:19;20.60;;;7.37;;
18082;SDS011;9168;51.194;6.840;2024-01-10T14:49:47;24.80;;;7.40;;
18082;SDS011;9168;51.194;6.840;2024-01-10T14:52:14;18.83;;;7.20;;